sensor_id;sensor_type;location;lat;lon;timestamp;P1;durP1;ratioP1;P2;durP2;ratioP2
24637;SDS011;12773;50.162;8.548;2023-09-07T00:01:15;5.08;;;2.42;;
24637;SDS011;12773;50.162;8.548;2023-09-07T00:04:03;3.50;;;2.30;;
24637;SDS011;12773;50.162;8.548;2023-09-07T00:06:52;6.20;;;2.62;;
24637;SDS011;12773;50.162;8.548;2023-09-07T00:09:40;3.35;;;2.50;;
24637;SDS011;12773;50.162;8.548;2023-09-07T00:12:27;6.00;;;2.50;;
24637;SDS011;12773;50.162;8.548;2023-09-07T00:15:15;3.00;;;2.40;;
24637;SDS011;12773;50.162;8.548;2023-09-07T00:18:04;3.37;;;2.05;;
24637;SDS011;12773;50.162;8.548;2023-09-07T00:20:51;3.27;;;2.10;;
24637;SDS011;12773;50.162;8.548;2023-09-07T00:23:39;3.40;;;2.25;;
24637;SDS011;12773;50.162;8.548;2023-09-07T00:26:26;3.95;;;2.37;;
24637;SDS011;12773;50.162;8.548;2023-09-07T00:29:14;5.85;;;2.37;;
24637;SDS011;12773;50.162;8.548;2023-09-07T00:32:01;6.37;;;2.85;;
24637;SDS011;12773;50.162;8.548;2023-09-07T00:34:49;4.25;;;2.62;;
24637;SDS011;12773;50.162;8.548;2023-09-07T00:37:37;6.35;;;2.75;;
24637;SDS011;12773;50.162;8.548;2023-09-07T00:40:24;5.37;;;2.50;;
24637;SDS011;12773;50.162;8.548;2023-09-07T00:43:12;4.83;;;2.52;;
24637;SDS011;12773;50.162;8.548;2023-09-07T00:46:00;5.75;;;2.70;;
24637;SDS011;12773;50.162;8.548;2023-09-07T00:48:50;5.35;;;2.60;;
24637;SDS011;12773;50.162;8.548;2023-09-07T00:51:38;4.85;;;2.62;;
24637;SDS011;12773;50.162;8.548;2023-09-07T00:54:27;6.47;;;2.60;;
24637;SDS011;12773;50.162;8.548;2023-09-07T00:57:16;4.53;;;2.58;;
24637;SDS011;12773;50.162;8.548;2023-09-07T01:00:04;4.03;;;2.90;;
24637;SDS011;12773;50.162;8.548;2023-09-07T01:02:53;6.15;;;3.02;;
24637;SDS011;12773;50.162;8.548;2023-09-07T01:06:07;5.17;;;2.80;;
24637;SDS011;12773;50.162;8.548;2023-09-07T01:08:42;4.00;;;2.90;;
24637;SDS011;12773;50.162;8.548;2023-09-07T01:11:35;4.37;;;2.67;;
24637;SDS011;12773;50.162;8.548;2023-09-07T01:14:23;5.80;;;2.65;;
24637;SDS011;12773;50.162;8.548;2023-09-07T01:17:11;4.25;;;2.90;;
24637;SDS011;12773;50.162;8.548;2023-09-07T01:20:00;3.52;;;2.47;;
24637;SDS011;12773;50.162;8.548;2023-09-07T01:22:51;4.80;;;2.50;;
24637;SDS011;12773;50.162;8.548;2023-09-07T01:25:40;3.05;;;2.60;;
24637;SDS011;12773;50.162;8.548;2023-09-07T01:28:29;5.65;;;3.00;;
24637;SDS011;12773;50.162;8.548;2023-09-07T01:31:17;5.08;;;2.90;;
24637;SDS011;12773;50.162;8.548;2023-09-07T01:34:07;6.65;;;2.90;;
24637;SDS011;12773;50.162;8.548;2023-09-07T01:36:55;4.37;;;2.70;;
24637;SDS011;12773;50.162;8.548;2023-09-07T01:39:42;5.92;;;2.60;;
24637;SDS011;12773;50.162;8.548;2023-09-07T01:42:30;4.37;;;2.72;;
24637;SDS011;12773;50.162;8.548;2023-09-07T01:45:18;5.55;;;2.60;;
24637;SDS011;12773;50.162;8.548;2023-09-07T01:48:11;3.70;;;2.90;;
24637;SDS011;12773;50.162;8.548;2023-09-07T01:51:01;3.58;;;2.55;;
24637;SDS011;12773;50.162;8.548;2023-09-07T01:53:50;5.12;;;2.50;;
24637;SDS011;12773;50.162;8.548;2023-09-07T01:56:37;4.80;;;2.87;;
24637;SDS011;12773;50.162;8.548;2023-09-07T01:59:26;4.37;;;3.10;;
24637;SDS011;12773;50.162;8.548;2023-09-07T02:02:21;3.87;;;2.98;;
24637;SDS011;12773;50.162;8.548;2023-09-07T02:05:04;4.65;;;3.30;;
24637;SDS011;12773;50.162;8.548;2023-09-07T02:07:52;4.40;;;2.87;;
24637;SDS011;12773;50.162;8.548;2023-09-07T02:10:40;6.20;;;3.20;;
24637;SDS011;12773;50.162;8.548;2023-09-07T02:13:27;5.90;;;3.08;;
24637;SDS011;12773;50.162;8.548;2023-09-07T02:16:14;7.15;;;3.25;;
24637;SDS011;12773;50.162;8.548;2023-09-07T02:19:02;7.83;;;3.35;;
24637;SDS011;12773;50.162;8.548;2023-09-07T02:21:53;4.72;;;2.95;;
24637;SDS011;12773;50.162;8.548;2023-09-07T02:24:41;3.87;;;2.65;;
24637;SDS011;12773;50.162;8.548;2023-09-07T02:27:28;6.20;;;3.35;;
24637;SDS011;12773;50.162;8.548;2023-09-07T02:30:16;5.33;;;2.87;;
24637;SDS011;12773;50.162;8.548;2023-09-07T02:33:04;7.17;;;3.42;;
24637;SDS011;12773;50.162;8.548;2023-09-07T02:35:51;6.33;;;3.17;;
24637;SDS011;12773;50.162;8.548;2023-09-07T02:38:39;6.45;;;3.47;;
24637;SDS011;12773;50.162;8.548;2023-09-07T02:41:27;5.40;;;2.85;;
24637;SDS011;12773;50.162;8.548;2023-09-07T02:44:15;6.03;;;3.30;;
24637;SDS011;12773;50.162;8.548;2023-09-07T02:47:03;4.35;;;3.60;;
24637;SDS011;12773;50.162;8.548;2023-09-07T02:49:51;5.12;;;3.45;;
24637;SDS011;12773;50.162;8.548;2023-09-07T02:52:39;5.10;;;3.72;;
24637;SDS011;12773;50.162;8.548;2023-09-07T02:55:27;4.65;;;3.47;;
24637;SDS011;12773;50.162;8.548;2023-09-07T02:58:14;5.87;;;3.02;;
24637;SDS011;12773;50.162;8.548;2023-09-07T03:01:05;5.97;;;3.72;;
24637;SDS011;12773;50.162;8.548;2023-09-07T03:03:55;6.90;;;3.45;;
24637;SDS011;12773;50.162;8.548;2023-09-07T03:06:43;7.05;;;3.50;;
24637;SDS011;12773;50.162;8.548;2023-09-07T03:09:31;4.65;;;3.35;;
24637;SDS011;12773;50.162;8.548;2023-09-07T03:12:18;5.22;;;3.60;;
24637;SDS011;12773;50.162;8.548;2023-09-07T03:15:06;6.85;;;3.60;;
24637;SDS011;12773;50.162;8.548;2023-09-07T03:17:54;5.65;;;3.58;;
24637;SDS011;12773;50.162;8.548;2023-09-07T03:20:41;7.37;;;3.30;;
24637;SDS011;12773;50.162;8.548;2023-09-07T03:23:29;6.22;;;4.05;;
24637;SDS011;12773;50.162;8.548;2023-09-07T03:26:17;5.50;;;3.37;;
24637;SDS011;12773;50.162;8.548;2023-09-07T03:29:05;5.03;;;3.60;;
24637;SDS011;12773;50.162;8.548;2023-09-07T03:31:52;8.20;;;3.55;;
24637;SDS011;12773;50.162;8.548;2023-09-07T03:34:40;6.55;;;3.70;;
24637;SDS011;12773;50.162;8.548;2023-09-07T03:37:27;8.25;;;3.45;;
24637;SDS011;12773;50.162;8.548;2023-09-07T03:40:15;5.08;;;3.50;;
24637;SDS011;12773;50.162;8.548;2023-09-07T03:43:03;5.53;;;3.90;;
24637;SDS011;12773;50.162;8.548;2023-09-07T03:45:50;5.50;;;3.90;;
24637;SDS011;12773;50.162;8.548;2023-09-07T03:48:38;7.00;;;3.50;;
24637;SDS011;12773;50.162;8.548;2023-09-07T03:51:26;5.87;;;3.77;;
24637;SDS011;12773;50.162;8.548;2023-09-07T03:54:14;7.62;;;3.95;;
24637;SDS011;12773;50.162;8.548;2023-09-07T03:57:01;5.85;;;4.22;;
24637;SDS011;12773;50.162;8.548;2023-09-07T03:59:49;5.33;;;3.62;;
24637;SDS011;12773;50.162;8.548;2023-09-07T04:02:37;6.37;;;3.83;;
24637;SDS011;12773;50.162;8.548;2023-09-07T04:05:25;7.55;;;3.70;;
24637;SDS011;12773;50.162;8.548;2023-09-07T04:08:12;8.10;;;4.00;;
24637;SDS011;12773;50.162;8.548;2023-09-07T04:11:03;6.95;;;3.98;;
24637;SDS011;12773;50.162;8.548;2023-09-07T04:13:51;5.00;;;4.00;;
24637;SDS011;12773;50.162;8.548;2023-09-07T04:16:39;5.55;;;4.25;;
24637;SDS011;12773;50.162;8.548;2023-09-07T04:19:28;7.28;;;4.08;;
24637;SDS011;12773;50.162;8.548;2023-09-07T04:22:15;6.83;;;4.50;;
24637;SDS011;12773;50.162;8.548;2023-09-07T04:25:03;7.58;;;3.83;;
24637;SDS011;12773;50.162;8.548;2023-09-07T04:27:51;6.92;;;4.42;;
24637;SDS011;12773;50.162;8.548;2023-09-07T04:30:39;6.53;;;4.10;;
24637;SDS011;12773;50.162;8.548;2023-09-07T04:33:34;5.22;;;3.87;;
24637;SDS011;12773;50.162;8.548;2023-09-07T04:36:22;5.55;;;3.98;;
24637;SDS011;12773;50.162;8.548;2023-09-07T04:39:10;7.85;;;4.08;;
24637;SDS011;12773;50.162;8.548;2023-09-07T04:41:59;5.03;;;3.90;;
24637;SDS011;12773;50.162;8.548;2023-09-07T04:44:47;6.95;;;4.08;;
24637;SDS011;12773;50.162;8.548;2023-09-07T04:47:34;5.83;;;3.85;;
24637;SDS011;12773;50.162;8.548;2023-09-07T04:50:23;8.20;;;4.10;;
24637;SDS011;12773;50.162;8.548;2023-09-07T04:53:11;10.70;;;4.42;;
24637;SDS011;12773;50.162;8.548;2023-09-07T04:55:58;5.37;;;4.33;;
24637;SDS011;12773;50.162;8.548;2023-09-07T04:58:46;9.93;;;4.67;;
24637;SDS011;12773;50.162;8.548;2023-09-07T05:01:33;4.67;;;3.90;;
24637;SDS011;12773;50.162;8.548;2023-09-07T05:04:21;7.10;;;4.28;;
24637;SDS011;12773;50.162;8.548;2023-09-07T05:07:08;7.53;;;3.83;;
24637;SDS011;12773;50.162;8.548;2023-09-07T05:09:56;5.95;;;4.58;;
24637;SDS011;12773;50.162;8.548;2023-09-07T05:12:43;5.72;;;4.20;;
24637;SDS011;12773;50.162;8.548;2023-09-07T05:15:32;7.80;;;4.15;;
24637;SDS011;12773;50.162;8.548;2023-09-07T05:18:19;5.28;;;4.05;;
24637;SDS011;12773;50.162;8.548;2023-09-07T05:21:11;6.83;;;4.45;;
24637;SDS011;12773;50.162;8.548;2023-09-07T05:24:00;7.53;;;4.95;;
24637;SDS011;12773;50.162;8.548;2023-09-07T05:26:47;8.93;;;4.58;;
24637;SDS011;12773;50.162;8.548;2023-09-07T05:29:35;6.70;;;4.35;;
24637;SDS011;12773;50.162;8.548;2023-09-07T05:32:23;6.20;;;4.20;;
24637;SDS011;12773;50.162;8.548;2023-09-07T05:35:10;8.98;;;4.35;;
24637;SDS011;12773;50.162;8.548;2023-09-07T05:37:59;6.12;;;3.72;;
24637;SDS011;12773;50.162;8.548;2023-09-07T05:40:47;9.20;;;4.10;;
24637;SDS011;12773;50.162;8.548;2023-09-07T05:43:35;9.03;;;4.15;;
24637;SDS011;12773;50.162;8.548;2023-09-07T05:46:23;6.97;;;3.98;;
24637;SDS011;12773;50.162;8.548;2023-09-07T05:49:10;5.45;;;4.05;;
24637;SDS011;12773;50.162;8.548;2023-09-07T05:51:57;6.92;;;3.95;;
24637;SDS011;12773;50.162;8.548;2023-09-07T05:54:45;5.80;;;3.90;;
24637;SDS011;12773;50.162;8.548;2023-09-07T05:57:33;10.55;;;4.20;;
24637;SDS011;12773;50.162;8.548;2023-09-07T06:00:20;6.08;;;3.67;;
24637;SDS011;12773;50.162;8.548;2023-09-07T06:03:09;5.60;;;3.92;;
24637;SDS011;12773;50.162;8.548;2023-09-07T06:05:57;5.85;;;3.60;;
24637;SDS011;12773;50.162;8.548;2023-09-07T06:08:45;4.97;;;3.65;;
24637;SDS011;12773;50.162;8.548;2023-09-07T06:11:32;5.87;;;3.65;;
24637;SDS011;12773;50.162;8.548;2023-09-07T06:14:20;6.03;;;3.70;;
24637;SDS011;12773;50.162;8.548;2023-09-07T06:17:07;10.60;;;4.30;;
24637;SDS011;12773;50.162;8.548;2023-09-07T06:19:56;5.55;;;3.50;;
24637;SDS011;12773;50.162;8.548;2023-09-07T06:22:43;6.80;;;4.00;;
24637;SDS011;12773;50.162;8.548;2023-09-07T06:25:30;7.33;;;4.10;;
24637;SDS011;12773;50.162;8.548;2023-09-07T06:28:18;7.47;;;3.83;;
24637;SDS011;12773;50.162;8.548;2023-09-07T06:31:05;6.20;;;3.90;;
24637;SDS011;12773;50.162;8.548;2023-09-07T06:33:53;6.20;;;3.67;;
24637;SDS011;12773;50.162;8.548;2023-09-07T06:36:40;4.62;;;3.85;;
24637;SDS011;12773;50.162;8.548;2023-09-07T06:39:29;5.97;;;3.77;;
24637;SDS011;12773;50.162;8.548;2023-09-07T06:42:17;4.92;;;3.98;;
24637;SDS011;12773;50.162;8.548;2023-09-07T06:45:04;7.85;;;4.30;;
24637;SDS011;12773;50.162;8.548;2023-09-07T06:47:52;5.87;;;3.90;;
24637;SDS011;12773;50.162;8.548;2023-09-07T06:50:40;6.00;;;3.77;;
24637;SDS011;12773;50.162;8.548;2023-09-07T06:53:28;7.47;;;3.83;;
24637;SDS011;12773;50.162;8.548;2023-09-07T06:56:17;5.47;;;3.60;;
24637;SDS011;12773;50.162;8.548;2023-09-07T06:59:04;7.55;;;3.65;;
24637;SDS011;12773;50.162;8.548;2023-09-07T07:01:52;5.72;;;3.87;;
24637;SDS011;12773;50.162;8.548;2023-09-07T07:04:39;7.45;;;4.30;;
24637;SDS011;12773;50.162;8.548;2023-09-07T07:07:29;9.53;;;3.98;;
24637;SDS011;12773;50.162;8.548;2023-09-07T07:10:16;5.90;;;3.77;;
24637;SDS011;12773;50.162;8.548;2023-09-07T07:13:04;6.20;;;3.72;;
24637;SDS011;12773;50.162;8.548;2023-09-07T07:15:51;5.15;;;3.60;;
24637;SDS011;12773;50.162;8.548;2023-09-07T07:18:54;5.53;;;3.42;;
24637;SDS011;12773;50.162;8.548;2023-09-07T07:21:59;7.95;;;4.55;;
24637;SDS011;12773;50.162;8.548;2023-09-07T07:24:46;7.22;;;3.62;;
24637;SDS011;12773;50.162;8.548;2023-09-07T07:27:34;6.60;;;3.42;;
24637;SDS011;12773;50.162;8.548;2023-09-07T07:30:22;5.37;;;3.67;;
24637;SDS011;12773;50.162;8.548;2023-09-07T07:33:09;9.73;;;4.00;;
24637;SDS011;12773;50.162;8.548;2023-09-07T07:36:00;10.25;;;4.15;;
24637;SDS011;12773;50.162;8.548;2023-09-07T07:38:47;5.20;;;3.80;;
24637;SDS011;12773;50.162;8.548;2023-09-07T07:41:40;9.85;;;3.98;;
24637;SDS011;12773;50.162;8.548;2023-09-07T07:44:28;4.78;;;3.55;;
24637;SDS011;12773;50.162;8.548;2023-09-07T07:47:16;8.38;;;3.90;;
24637;SDS011;12773;50.162;8.548;2023-09-07T07:50:05;5.60;;;3.47;;
24637;SDS011;12773;50.162;8.548;2023-09-07T07:52:52;5.30;;;3.70;;
24637;SDS011;12773;50.162;8.548;2023-09-07T07:55:39;5.80;;;4.22;;
24637;SDS011;12773;50.162;8.548;2023-09-07T07:58:27;7.37;;;4.10;;
24637;SDS011;12773;50.162;8.548;2023-09-07T08:01:18;9.43;;;4.55;;
24637;SDS011;12773;50.162;8.548;2023-09-07T08:04:06;7.70;;;3.58;;
24637;SDS011;12773;50.162;8.548;2023-09-07T08:06:55;4.42;;;3.60;;
24637;SDS011;12773;50.162;8.548;2023-09-07T08:09:43;5.50;;;3.70;;
24637;SDS011;12773;50.162;8.548;2023-09-07T08:12:33;5.03;;;3.75;;
24637;SDS011;12773;50.162;8.548;2023-09-07T08:15:20;13.22;;;3.98;;
24637;SDS011;12773;50.162;8.548;2023-09-07T08:18:08;6.22;;;3.95;;
24637;SDS011;12773;50.162;8.548;2023-09-07T08:20:56;5.50;;;3.70;;
24637;SDS011;12773;50.162;8.548;2023-09-07T08:23:44;7.15;;;4.08;;
24637;SDS011;12773;50.162;8.548;2023-09-07T08:26:31;6.53;;;3.50;;
24637;SDS011;12773;50.162;8.548;2023-09-07T08:29:19;16.87;;;4.58;;
24637;SDS011;12773;50.162;8.548;2023-09-07T08:32:06;5.40;;;3.95;;
24637;SDS011;12773;50.162;8.548;2023-09-07T08:34:56;5.37;;;3.80;;
24637;SDS011;12773;50.162;8.548;2023-09-07T08:37:45;4.62;;;3.70;;
24637;SDS011;12773;50.162;8.548;2023-09-07T08:40:33;5.55;;;3.80;;
24637;SDS011;12773;50.162;8.548;2023-09-07T08:43:21;6.15;;;4.05;;
24637;SDS011;12773;50.162;8.548;2023-09-07T08:46:14;6.15;;;4.12;;
24637;SDS011;12773;50.162;8.548;2023-09-07T08:49:03;9.13;;;4.10;;
24637;SDS011;12773;50.162;8.548;2023-09-07T08:51:51;8.15;;;3.90;;
24637;SDS011;12773;50.162;8.548;2023-09-07T08:54:41;7.50;;;4.00;;
24637;SDS011;12773;50.162;8.548;2023-09-07T08:57:30;7.05;;;3.98;;
24637;SDS011;12773;50.162;8.548;2023-09-07T09:00:17;5.47;;;3.90;;
24637;SDS011;12773;50.162;8.548;2023-09-07T09:03:06;6.28;;;4.40;;
24637;SDS011;12773;50.162;8.548;2023-09-07T09:05:53;7.05;;;4.30;;
24637;SDS011;12773;50.162;8.548;2023-09-07T09:08:43;5.17;;;4.22;;
24637;SDS011;12773;50.162;8.548;2023-09-07T09:11:38;8.55;;;4.15;;
24637;SDS011;12773;50.162;8.548;2023-09-07T09:14:25;5.53;;;3.65;;
24637;SDS011;12773;50.162;8.548;2023-09-07T09:17:14;3.83;;;3.10;;
24637;SDS011;12773;50.162;8.548;2023-09-07T09:20:02;6.67;;;3.67;;
24637;SDS011;12773;50.162;8.548;2023-09-07T09:22:57;5.83;;;3.80;;
24637;SDS011;12773;50.162;8.548;2023-09-07T09:25:40;6.80;;;3.62;;
24637;SDS011;12773;50.162;8.548;2023-09-07T09:28:30;7.58;;;3.65;;
24637;SDS011;12773;50.162;8.548;2023-09-07T09:31:19;6.20;;;3.80;;
24637;SDS011;12773;50.162;8.548;2023-09-07T09:34:07;6.95;;;3.65;;
24637;SDS011;12773;50.162;8.548;2023-09-07T09:36:55;5.65;;;3.62;;
24637;SDS011;12773;50.162;8.548;2023-09-07T09:39:42;4.08;;;3.60;;
24637;SDS011;12773;50.162;8.548;2023-09-07T09:42:33;5.45;;;3.77;;
24637;SDS011;12773;50.162;8.548;2023-09-07T09:45:21;5.83;;;3.60;;
24637;SDS011;12773;50.162;8.548;2023-09-07T09:48:08;7.97;;;3.80;;
24637;SDS011;12773;50.162;8.548;2023-09-07T09:50:56;7.65;;;4.22;;
24637;SDS011;12773;50.162;8.548;2023-09-07T09:53:45;5.08;;;3.25;;
24637;SDS011;12773;50.162;8.548;2023-09-07T09:56:35;5.10;;;3.10;;
24637;SDS011;12773;50.162;8.548;2023-09-07T09:59:22;8.15;;;3.65;;
24637;SDS011;12773;50.162;8.548;2023-09-07T10:02:10;5.15;;;3.67;;
24637;SDS011;12773;50.162;8.548;2023-09-07T10:04:58;4.65;;;3.47;;
24637;SDS011;12773;50.162;8.548;2023-09-07T10:07:48;4.58;;;3.02;;
24637;SDS011;12773;50.162;8.548;2023-09-07T10:10:36;7.40;;;4.15;;
24637;SDS011;12773;50.162;8.548;2023-09-07T10:13:30;10.18;;;3.62;;
24637;SDS011;12773;50.162;8.548;2023-09-07T10:16:20;5.93;;;3.67;;
24637;SDS011;12773;50.162;8.548;2023-09-07T10:19:20;4.80;;;3.62;;
24637;SDS011;12773;50.162;8.548;2023-09-07T10:22:09;4.83;;;3.70;;
24637;SDS011;12773;50.162;8.548;2023-09-07T10:24:58;7.22;;;3.30;;
24637;SDS011;12773;50.162;8.548;2023-09-07T10:27:46;6.55;;;3.40;;
24637;SDS011;12773;50.162;8.548;2023-09-07T10:30:33;5.30;;;3.80;;
24637;SDS011;12773;50.162;8.548;2023-09-07T10:33:21;6.10;;;3.95;;
24637;SDS011;12773;50.162;8.548;2023-09-07T10:36:19;7.42;;;3.80;;
24637;SDS011;12773;50.162;8.548;2023-09-07T10:39:08;7.95;;;3.20;;
24637;SDS011;12773;50.162;8.548;2023-09-07T10:41:59;5.53;;;3.70;;
24637;SDS011;12773;50.162;8.548;2023-09-07T10:44:46;8.55;;;4.00;;
24637;SDS011;12773;50.162;8.548;2023-09-07T10:47:34;4.78;;;3.47;;
24637;SDS011;12773;50.162;8.548;2023-09-07T10:50:22;3.95;;;3.35;;
24637;SDS011;12773;50.162;8.548;2023-09-07T10:53:11;6.47;;;3.40;;
24637;SDS011;12773;50.162;8.548;2023-09-07T10:56:05;7.67;;;3.50;;
24637;SDS011;12773;50.162;8.548;2023-09-07T10:58:50;6.15;;;3.10;;
24637;SDS011;12773;50.162;8.548;2023-09-07T11:01:41;3.87;;;3.12;;
24637;SDS011;12773;50.162;8.548;2023-09-07T11:04:30;4.58;;;3.77;;
24637;SDS011;12773;50.162;8.548;2023-09-07T11:07:17;4.12;;;3.58;;
24637;SDS011;12773;50.162;8.548;2023-09-07T11:10:05;7.83;;;3.08;;
24637;SDS011;12773;50.162;8.548;2023-09-07T11:12:54;4.47;;;2.92;;
24637;SDS011;12773;50.162;8.548;2023-09-07T11:15:41;4.97;;;3.12;;
24637;SDS011;12773;50.162;8.548;2023-09-07T11:18:29;6.40;;;2.80;;
24637;SDS011;12773;50.162;8.548;2023-09-07T11:21:17;6.15;;;2.90;;
24637;SDS011;12773;50.162;8.548;2023-09-07T11:24:05;4.80;;;3.33;;
24637;SDS011;12773;50.162;8.548;2023-09-07T11:26:54;7.62;;;3.20;;
24637;SDS011;12773;50.162;8.548;2023-09-07T11:29:50;4.33;;;3.50;;
24637;SDS011;12773;50.162;8.548;2023-09-07T11:32:38;5.37;;;3.20;;
24637;SDS011;12773;50.162;8.548;2023-09-07T11:35:28;5.30;;;3.30;;
24637;SDS011;12773;50.162;8.548;2023-09-07T11:38:16;4.45;;;3.20;;
24637;SDS011;12773;50.162;8.548;2023-09-07T11:41:04;4.65;;;3.05;;
24637;SDS011;12773;50.162;8.548;2023-09-07T11:43:51;5.17;;;3.08;;
24637;SDS011;12773;50.162;8.548;2023-09-07T11:46:39;3.47;;;3.00;;
24637;SDS011;12773;50.162;8.548;2023-09-07T11:49:27;5.40;;;2.98;;
24637;SDS011;12773;50.162;8.548;2023-09-07T11:52:15;3.65;;;3.25;;
24637;SDS011;12773;50.162;8.548;2023-09-07T11:55:03;5.45;;;3.00;;
24637;SDS011;12773;50.162;8.548;2023-09-07T11:57:50;3.37;;;2.95;;
24637;SDS011;12773;50.162;8.548;2023-09-07T12:00:37;4.05;;;3.15;;
24637;SDS011;12773;50.162;8.548;2023-09-07T12:03:26;4.53;;;3.20;;
24637;SDS011;12773;50.162;8.548;2023-09-07T12:06:16;6.22;;;3.00;;
24637;SDS011;12773;50.162;8.548;2023-09-07T12:09:04;7.03;;;3.22;;
24637;SDS011;12773;50.162;8.548;2023-09-07T12:11:54;4.10;;;2.98;;
24637;SDS011;12773;50.162;8.548;2023-09-07T12:14:42;4.65;;;2.95;;
24637;SDS011;12773;50.162;8.548;2023-09-07T12:17:30;6.40;;;3.17;;
24637;SDS011;12773;50.162;8.548;2023-09-07T12:20:18;4.08;;;2.90;;
24637;SDS011;12773;50.162;8.548;2023-09-07T12:23:07;3.75;;;3.08;;
24637;SDS011;12773;50.162;8.548;2023-09-07T12:25:54;5.45;;;3.20;;
24637;SDS011;12773;50.162;8.548;2023-09-07T12:28:41;4.58;;;3.02;;
24637;SDS011;12773;50.162;8.548;2023-09-07T12:31:30;4.10;;;3.20;;
24637;SDS011;12773;50.162;8.548;2023-09-07T12:34:17;5.70;;;3.20;;
24637;SDS011;12773;50.162;8.548;2023-09-07T12:37:05;5.62;;;2.87;;
24637;SDS011;12773;50.162;8.548;2023-09-07T12:39:53;5.92;;;3.30;;
24637;SDS011;12773;50.162;8.548;2023-09-07T12:42:41;4.25;;;3.12;;
24637;SDS011;12773;50.162;8.548;2023-09-07T12:45:30;5.15;;;3.27;;
24637;SDS011;12773;50.162;8.548;2023-09-07T12:48:19;7.00;;;3.00;;
24637;SDS011;12773;50.162;8.548;2023-09-07T12:51:06;3.98;;;2.90;;
24637;SDS011;12773;50.162;8.548;2023-09-07T12:53:54;5.70;;;3.02;;
24637;SDS011;12773;50.162;8.548;2023-09-07T12:56:41;5.15;;;3.15;;
24637;SDS011;12773;50.162;8.548;2023-09-07T12:59:29;4.37;;;3.10;;
24637;SDS011;12773;50.162;8.548;2023-09-07T13:02:17;4.80;;;3.30;;
24637;SDS011;12773;50.162;8.548;2023-09-07T13:05:05;4.62;;;3.05;;
24637;SDS011;12773;50.162;8.548;2023-09-07T13:07:52;6.12;;;3.20;;
24637;SDS011;12773;50.162;8.548;2023-09-07T13:10:40;4.15;;;3.02;;
24637;SDS011;12773;50.162;8.548;2023-09-07T13:13:28;6.83;;;3.33;;
24637;SDS011;12773;50.162;8.548;2023-09-07T13:16:15;4.35;;;3.22;;
24637;SDS011;12773;50.162;8.548;2023-09-07T13:19:03;3.98;;;3.05;;
24637;SDS011;12773;50.162;8.548;2023-09-07T13:21:52;3.77;;;2.60;;
24637;SDS011;12773;50.162;8.548;2023-09-07T13:24:39;3.85;;;3.30;;
24637;SDS011;12773;50.162;8.548;2023-09-07T13:27:27;3.72;;;2.90;;
24637;SDS011;12773;50.162;8.548;2023-09-07T13:30:15;4.97;;;3.25;;
24637;SDS011;12773;50.162;8.548;2023-09-07T13:33:02;5.20;;;3.40;;
24637;SDS011;12773;50.162;8.548;2023-09-07T13:35:49;3.55;;;3.02;;
24637;SDS011;12773;50.162;8.548;2023-09-07T13:38:37;4.42;;;3.35;;
24637;SDS011;12773;50.162;8.548;2023-09-07T13:41:26;5.65;;;3.20;;
24637;SDS011;12773;50.162;8.548;2023-09-07T13:44:14;4.62;;;3.17;;
24637;SDS011;12773;50.162;8.548;2023-09-07T13:47:02;4.35;;;3.02;;
24637;SDS011;12773;50.162;8.548;2023-09-07T13:49:50;6.40;;;3.05;;
24637;SDS011;12773;50.162;8.548;2023-09-07T13:52:38;5.75;;;3.22;;
24637;SDS011;12773;50.162;8.548;2023-09-07T13:55:25;4.25;;;3.25;;
24637;SDS011;12773;50.162;8.548;2023-09-07T13:58:12;4.58;;;3.10;;
24637;SDS011;12773;50.162;8.548;2023-09-07T14:01:03;3.95;;;3.00;;
24637;SDS011;12773;50.162;8.548;2023-09-07T14:03:50;6.10;;;3.37;;
24637;SDS011;12773;50.162;8.548;2023-09-07T14:06:38;6.37;;;3.45;;
24637;SDS011;12773;50.162;8.548;2023-09-07T14:09:25;5.70;;;3.33;;
24637;SDS011;12773;50.162;8.548;2023-09-07T14:12:13;5.78;;;2.98;;
24637;SDS011;12773;50.162;8.548;2023-09-07T14:15:00;4.75;;;2.83;;
24637;SDS011;12773;50.162;8.548;2023-09-07T14:17:48;3.75;;;3.10;;
24637;SDS011;12773;50.162;8.548;2023-09-07T14:20:35;6.50;;;3.55;;
24637;SDS011;12773;50.162;8.548;2023-09-07T14:23:23;5.00;;;3.05;;
24637;SDS011;12773;50.162;8.548;2023-09-07T14:26:12;4.12;;;2.92;;
24637;SDS011;12773;50.162;8.548;2023-09-07T14:29:00;6.20;;;3.20;;
24637;SDS011;12773;50.162;8.548;2023-09-07T14:31:47;5.17;;;3.20;;
24637;SDS011;12773;50.162;8.548;2023-09-07T14:34:35;4.87;;;2.92;;
24637;SDS011;12773;50.162;8.548;2023-09-07T14:37:23;4.92;;;3.02;;
24637;SDS011;12773;50.162;8.548;2023-09-07T14:40:10;3.67;;;2.92;;
24637;SDS011;12773;50.162;8.548;2023-09-07T14:42:59;6.10;;;3.15;;
24637;SDS011;12773;50.162;8.548;2023-09-07T14:45:47;5.83;;;3.20;;
24637;SDS011;12773;50.162;8.548;2023-09-07T14:48:35;6.75;;;3.30;;
24637;SDS011;12773;50.162;8.548;2023-09-07T14:51:22;6.92;;;3.12;;
24637;SDS011;12773;50.162;8.548;2023-09-07T14:54:09;3.67;;;2.85;;
24637;SDS011;12773;50.162;8.548;2023-09-07T14:56:58;5.35;;;3.45;;
24637;SDS011;12773;50.162;8.548;2023-09-07T14:59:45;5.87;;;3.10;;
24637;SDS011;12773;50.162;8.548;2023-09-07T15:02:33;3.75;;;3.00;;
24637;SDS011;12773;50.162;8.548;2023-09-07T15:05:21;5.33;;;3.42;;
24637;SDS011;12773;50.162;8.548;2023-09-07T15:08:08;8.10;;;3.27;;
24637;SDS011;12773;50.162;8.548;2023-09-07T15:10:56;6.22;;;3.80;;
24637;SDS011;12773;50.162;8.548;2023-09-07T15:13:44;4.53;;;3.52;;
24637;SDS011;12773;50.162;8.548;2023-09-07T15:16:32;5.85;;;3.50;;
24637;SDS011;12773;50.162;8.548;2023-09-07T15:19:19;5.28;;;3.08;;
24637;SDS011;12773;50.162;8.548;2023-09-07T15:22:07;5.55;;;3.42;;
24637;SDS011;12773;50.162;8.548;2023-09-07T15:24:55;4.10;;;3.47;;
24637;SDS011;12773;50.162;8.548;2023-09-07T15:27:48;4.42;;;3.22;;
24637;SDS011;12773;50.162;8.548;2023-09-07T15:30:30;4.45;;;3.45;;
24637;SDS011;12773;50.162;8.548;2023-09-07T15:33:19;5.22;;;2.90;;
24637;SDS011;12773;50.162;8.548;2023-09-07T15:36:15;6.12;;;2.83;;
24637;SDS011;12773;50.162;8.548;2023-09-07T15:39:04;6.15;;;3.45;;
24637;SDS011;12773;50.162;8.548;2023-09-07T15:41:52;6.75;;;3.27;;
24637;SDS011;12773;50.162;8.548;2023-09-07T15:44:40;6.35;;;3.30;;
24637;SDS011;12773;50.162;8.548;2023-09-07T15:47:29;7.72;;;3.30;;
24637;SDS011;12773;50.162;8.548;2023-09-07T15:50:20;4.22;;;3.30;;
24637;SDS011;12773;50.162;8.548;2023-09-07T15:53:07;4.85;;;3.15;;
24637;SDS011;12773;50.162;8.548;2023-09-07T15:55:58;6.40;;;3.52;;
24637;SDS011;12773;50.162;8.548;2023-09-07T15:58:46;4.53;;;2.80;;
24637;SDS011;12773;50.162;8.548;2023-09-07T16:01:34;4.42;;;2.80;;
24637;SDS011;12773;50.162;8.548;2023-09-07T16:04:22;6.08;;;3.20;;
24637;SDS011;12773;50.162;8.548;2023-09-07T16:07:10;3.85;;;3.15;;
24637;SDS011;12773;50.162;8.548;2023-09-07T16:09:58;5.58;;;3.42;;
24637;SDS011;12773;50.162;8.548;2023-09-07T16:12:45;4.75;;;3.42;;
24637;SDS011;12773;50.162;8.548;2023-09-07T16:15:33;7.03;;;3.20;;
24637;SDS011;12773;50.162;8.548;2023-09-07T16:18:21;4.60;;;3.90;;
24637;SDS011;12773;50.162;8.548;2023-09-07T16:21:09;4.30;;;3.52;;
24637;SDS011;12773;50.162;8.548;2023-09-07T16:23:58;3.83;;;3.08;;
24637;SDS011;12773;50.162;8.548;2023-09-07T16:26:45;4.45;;;2.90;;
24637;SDS011;12773;50.162;8.548;2023-09-07T16:29:33;6.97;;;3.00;;
24637;SDS011;12773;50.162;8.548;2023-09-07T16:32:20;6.75;;;3.65;;
24637;SDS011;12773;50.162;8.548;2023-09-07T16:35:08;5.35;;;3.22;;
24637;SDS011;12773;50.162;8.548;2023-09-07T16:37:58;3.27;;;2.83;;
24637;SDS011;12773;50.162;8.548;2023-09-07T16:40:47;5.17;;;3.58;;
24637;SDS011;12773;50.162;8.548;2023-09-07T16:43:34;4.28;;;3.00;;
24637;SDS011;12773;50.162;8.548;2023-09-07T16:46:22;7.83;;;3.20;;
24637;SDS011;12773;50.162;8.548;2023-09-07T16:49:09;5.62;;;3.37;;
24637;SDS011;12773;50.162;8.548;2023-09-07T16:51:57;7.33;;;3.30;;
24637;SDS011;12773;50.162;8.548;2023-09-07T16:54:45;6.80;;;3.50;;